sensor_id;sensor_type;location;lat;lon;timestamp;pressure;altitude;pressure_sealevel;temperature;humidity
51083;BME280;37131;42.694;23.350;2024-01-07T00:01:10;94013.38;;;4.73;80.27
51083;BME280;37131;42.694;23.350;2024-01-07T00:03:36;94014.34;;;4.80;81.19
51083;BME280;37131;42.694;23.350;2024-01-07T00:06:02;94011.47;;;4.67;80.66
51083;BME280;37131;42.694;23.350;2024-01-07T00:08:27;94015.13;;;4.73;80.69
51083;BME280;37131;42.694;23.350;2024-01-07T00:10:53;94003.97;;;4.65;81.77
51083;BME280;37131;42.694;23.350;2024-01-07T00:13:18;94007.78;;;4.70;81.73
51083;BME280;37131;42.694;23.350;2024-01-07T00:15:43;94002.66;;;4.70;81.88
51083;BME280;37131;42.694;23.350;2024-01-07T00:18:09;93990.38;;;4.73;80.88
51083;BME280;37131;42.694;23.350;2024-01-07T00:20:34;93993.25;;;4.62;80.85
51083;BME280;37131;42.694;23.350;2024-01-07T00:23:00;93998.81;;;4.57;80.68
51083;BME280;37131;42.694;23.350;2024-01-07T00:25:26;93979.59;;;4.45;82.62
51083;BME280;37131;42.694;23.350;2024-01-07T00:27:51;93992.13;;;4.22;83.31
51083;BME280;37131;42.694;23.350;2024-01-07T00:30:20;93985.50;;;4.38;81.69
51083;BME280;37131;42.694;23.350;2024-01-07T00:32:46;93984.91;;;4.52;82.56
51083;BME280;37131;42.694;23.350;2024-01-07T00:35:11;93975.44;;;4.44;81.46
51083;BME280;37131;42.694;23.350;2024-01-07T00:37:37;93969.06;;;4.40;82.08
51083;BME280;37131;42.694;23.350;2024-01-07T00:40:03;93954.84;;;4.46;81.27
51083;BME280;37131;42.694;23.350;2024-01-07T00:42:29;93953.19;;;4.28;83.28
51083;BME280;37131;42.694;23.350;2024-01-07T00:44:54;93950.50;;;4.30;82.54
51083;BME280;37131;42.694;23.350;2024-01-07T00:47:20;93946.16;;;4.22;82.64
51083;BME280;37131;42.694;23.350;2024-01-07T00:49:45;93945.00;;;4.17;83.82
51083;BME280;37131;42.694;23.350;2024-01-07T00:52:11;93933.53;;;4.13;83.18
51083;BME280;37131;42.694;23.350;2024-01-07T00:54:36;93921.88;;;4.18;82.78
51083;BME280;37131;42.694;23.350;2024-01-07T00:57:02;93922.09;;;4.41;82.69
51083;BME280;37131;42.694;23.350;2024-01-07T00:59:28;93911.88;;;4.41;83.61
51083;BME280;37131;42.694;23.350;2024-01-07T01:01:54;93913.16;;;4.45;82.38
51083;BME280;37131;42.694;23.350;2024-01-07T01:04:20;93911.88;;;4.41;82.58
51083;BME280;37131;42.694;23.350;2024-01-07T01:06:46;93917.28;;;4.38;84.14
51083;BME280;37131;42.694;23.350;2024-01-07T01:09:12;93920.34;;;4.42;83.43
51083;BME280;37131;42.694;23.350;2024-01-07T01:11:38;93906.28;;;4.46;82.46
51083;BME280;37131;42.694;23.350;2024-01-07T01:14:04;93900.06;;;4.56;83.37
51083;BME280;37131;42.694;23.350;2024-01-07T01:16:29;93890.81;;;4.55;82.54
51083;BME280;37131;42.694;23.350;2024-01-07T01:18:55;93878.19;;;4.62;81.74
51083;BME280;37131;42.694;23.350;2024-01-07T01:21:20;93874.84;;;4.61;82.17
51083;BME280;37131;42.694;23.350;2024-01-07T01:23:46;93872.41;;;4.68;82.47
51083;BME280;37131;42.694;23.350;2024-01-07T01:26:12;93862.38;;;4.67;80.77
51083;BME280;37131;42.694;23.350;2024-01-07T01:28:37;93860.09;;;4.80;81.62
51083;BME280;37131;42.694;23.350;2024-01-07T01:31:03;93845.72;;;4.71;82.01
51083;BME280;37131;42.694;23.350;2024-01-07T01:33:28;93841.59;;;4.61;81.52
51083;BME280;37131;42.694;23.350;2024-01-07T01:35:54;93837.91;;;4.72;81.89
51083;BME280;37131;42.694;23.350;2024-01-07T01:38:19;93840.16;;;4.59;81.87
51083;BME280;37131;42.694;23.350;2024-01-07T01:40:51;93826.38;;;4.68;82.76
51083;BME280;37131;42.694;23.350;2024-01-07T01:43:25;93821.47;;;4.58;82.93
51083;BME280;37131;42.694;23.350;2024-01-07T01:45:52;93810.28;;;4.68;82.34
51083;BME280;37131;42.694;23.350;2024-01-07T01:48:18;93805.50;;;4.64;81.78
51083;BME280;37131;42.694;23.350;2024-01-07T01:50:44;93805.94;;;4.68;82.99
51083;BME280;37131;42.694;23.350;2024-01-07T01:53:10;93788.34;;;4.73;82.97
51083;BME280;37131;42.694;23.350;2024-01-07T01:55:36;93771.88;;;4.76;81.88
51083;BME280;37131;42.694;23.350;2024-01-07T01:58:02;93773.97;;;4.72;82.14
51083;BME280;37131;42.694;23.350;2024-01-07T02:00:29;93780.66;;;4.81;80.62
51083;BME280;37131;42.694;23.350;2024-01-07T02:02:55;93784.97;;;4.81;82.41
51083;BME280;37131;42.694;23.350;2024-01-07T02:05:20;93779.25;;;4.71;81.52
51083;BME280;37131;42.694;23.350;2024-01-07T02:07:46;93782.31;;;4.66;82.13
51083;BME280;37131;42.694;23.350;2024-01-07T02:10:12;93786.75;;;4.72;82.54
51083;BME280;37131;42.694;23.350;2024-01-07T02:12:38;93797.13;;;4.71;82.70
51083;BME280;37131;42.694;23.350;2024-01-07T02:15:03;93789.47;;;4.79;81.86
51083;BME280;37131;42.694;23.350;2024-01-07T02:17:29;93783.53;;;4.86;81.64
51083;BME280;37131;42.694;23.350;2024-01-07T02:19:55;93770.59;;;4.88;82.04
51083;BME280;37131;42.694;23.350;2024-01-07T02:22:20;93755.88;;;4.90;82.33
51083;BME280;37131;42.694;23.350;2024-01-07T02:24:46;93740.72;;;4.80;82.03
51083;BME280;37131;42.694;23.350;2024-01-07T02:27:11;93734.00;;;4.79;82.41
51083;BME280;37131;42.694;23.350;2024-01-07T02:29:36;93705.00;;;4.56;83.15
51083;BME280;37131;42.694;23.350;2024-01-07T02:32:02;93696.19;;;4.58;81.91
51083;BME280;37131;42.694;23.350;2024-01-07T02:34:27;93691.41;;;4.55;82.19
51083;BME280;37131;42.694;23.350;2024-01-07T02:36:53;93694.69;;;4.72;82.07
51083;BME280;37131;42.694;23.350;2024-01-07T02:39:18;93690.56;;;4.71;82.62
51083;BME280;37131;42.694;23.350;2024-01-07T02:41:44;93700.03;;;4.62;82.56
51083;BME280;37131;42.694;23.350;2024-01-07T02:44:09;93699.81;;;4.72;81.57
51083;BME280;37131;42.694;23.350;2024-01-07T02:46:35;93697.59;;;4.69;81.72
51083;BME280;37131;42.694;23.350;2024-01-07T02:49:00;93700.34;;;4.68;83.38
51083;BME280;37131;42.694;23.350;2024-01-07T02:51:25;93700.69;;;4.56;82.83
51083;BME280;37131;42.694;23.350;2024-01-07T02:53:51;93710.72;;;4.66;82.98
51083;BME280;37131;42.694;23.350;2024-01-07T02:56:16;93699.00;;;4.80;83.01
51083;BME280;37131;42.694;23.350;2024-01-07T02:58:41;93696.72;;;4.93;80.42
51083;BME280;37131;42.694;23.350;2024-01-07T03:01:10;93700.13;;;4.77;81.50
51083;BME280;37131;42.694;23.350;2024-01-07T03:03:36;93707.44;;;4.88;82.53
51083;BME280;37131;42.694;23.350;2024-01-07T03:06:01;93714.34;;;4.72;82.19
51083;BME280;37131;42.694;23.350;2024-01-07T03:08:27;93713.25;;;4.74;81.39
51083;BME280;37131;42.694;23.350;2024-01-07T03:10:53;93718.16;;;4.92;82.26
51083;BME280;37131;42.694;23.350;2024-01-07T03:13:18;93711.84;;;4.63;82.31
51083;BME280;37131;42.694;23.350;2024-01-07T03:15:44;93724.44;;;4.73;83.16
51083;BME280;37131;42.694;23.350;2024-01-07T03:18:09;93733.22;;;4.79;81.94
51083;BME280;37131;42.694;23.350;2024-01-07T03:20:35;93721.69;;;4.83;82.80
51083;BME280;37131;42.694;23.350;2024-01-07T03:23:00;93731.72;;;5.01;82.55
51083;BME280;37131;42.694;23.350;2024-01-07T03:25:26;93739.25;;;4.94;81.31
51083;BME280;37131;42.694;23.350;2024-01-07T03:27:51;93753.91;;;5.08;80.79
51083;BME280;37131;42.694;23.350;2024-01-07T03:30:17;93748.84;;;5.31;80.67
51083;BME280;37131;42.694;23.350;2024-01-07T03:32:42;93736.53;;;5.35;81.52
51083;BME280;37131;42.694;23.350;2024-01-07T03:35:07;93741.78;;;5.41;80.61
51083;BME280;37131;42.694;23.350;2024-01-07T03:37:36;93726.25;;;5.43;81.81
51083;BME280;37131;42.694;23.350;2024-01-07T03:40:01;93720.25;;;5.58;82.66
51083;BME280;37131;42.694;23.350;2024-01-07T03:42:27;93726.00;;;5.60;83.39
51083;BME280;37131;42.694;23.350;2024-01-07T03:44:52;93734.03;;;5.80;82.35
51083;BME280;37131;42.694;23.350;2024-01-07T03:47:17;93728.00;;;5.73;83.85
51083;BME280;37131;42.694;23.350;2024-01-07T03:49:43;93726.69;;;5.77;83.99
51083;BME280;37131;42.694;23.350;2024-01-07T03:52:08;93714.78;;;5.84;83.44
51083;BME280;37131;42.694;23.350;2024-01-07T03:54:34;93706.47;;;5.90;83.77
51083;BME280;37131;42.694;23.350;2024-01-07T03:56:59;93708.38;;;5.65;84.99
51083;BME280;37131;42.694;23.350;2024-01-07T03:59:25;93718.63;;;5.88;84.68
51083;BME280;37131;42.694;23.350;2024-01-07T04:01:52;93713.28;;;5.98;83.93
51083;BME280;37131;42.694;23.350;2024-01-07T04:04:18;93701.56;;;6.04;85.59
51083;BME280;37131;42.694;23.350;2024-01-07T04:06:43;93697.34;;;6.11;83.84
51083;BME280;37131;42.694;23.350;2024-01-07T04:09:09;93698.88;;;6.20;83.64
51083;BME280;37131;42.694;23.350;2024-01-07T04:11:41;93696.16;;;6.21;83.46
51083;BME280;37131;42.694;23.350;2024-01-07T04:14:07;93684.47;;;6.34;83.73
51083;BME280;37131;42.694;23.350;2024-01-07T04:16:33;93684.59;;;6.40;83.55
51083;BME280;37131;42.694;23.350;2024-01-07T04:18:58;93680.97;;;6.49;83.49
51083;BME280;37131;42.694;23.350;2024-01-07T04:21:24;93679.03;;;6.51;83.17
51083;BME280;37131;42.694;23.350;2024-01-07T04:23:49;93689.13;;;6.53;83.83
51083;BME280;37131;42.694;23.350;2024-01-07T04:26:14;93682.91;;;6.47;84.65
51083;BME280;37131;42.694;23.350;2024-01-07T04:28:44;93664.88;;;6.41;83.42
51083;BME280;37131;42.694;23.350;2024-01-07T04:31:10;93667.25;;;6.42;83.50
51083;BME280;37131;42.694;23.350;2024-01-07T04:33:35;93671.41;;;6.43;85.08
51083;BME280;37131;42.694;23.350;2024-01-07T04:36:00;93662.84;;;6.51;84.39
51083;BME280;37131;42.694;23.350;2024-01-07T04:38:29;93667.63;;;6.54;84.49
51083;BME280;37131;42.694;23.350;2024-01-07T04:40:54;93665.50;;;6.57;83.11
51083;BME280;37131;42.694;23.350;2024-01-07T04:43:19;93669.53;;;6.37;85.52
51083;BME280;37131;42.694;23.350;2024-01-07T04:45:45;93659.84;;;6.47;84.18
51083;BME280;37131;42.694;23.350;2024-01-07T04:48:12;93650.19;;;6.20;85.34
51083;BME280;37131;42.694;23.350;2024-01-07T04:50:41;93642.31;;;6.21;85.39
51083;BME280;37131;42.694;23.350;2024-01-07T04:53:08;93649.03;;;6.22;85.53
51083;BME280;37131;42.694;23.350;2024-01-07T04:55:33;93661.84;;;6.37;84.65
51083;BME280;37131;42.694;23.350;2024-01-07T04:57:59;93667.06;;;6.14;84.13
51083;BME280;37131;42.694;23.350;2024-01-07T05:00:24;93678.72;;;6.17;84.95
51083;BME280;37131;42.694;23.350;2024-01-07T05:02:50;93677.88;;;6.02;84.81
51083;BME280;37131;42.694;23.350;2024-01-07T05:05:15;93688.13;;;6.02;84.12
51083;BME280;37131;42.694;23.350;2024-01-07T05:07:41;93675.84;;;5.97;84.21
51083;BME280;37131;42.694;23.350;2024-01-07T05:10:07;93657.53;;;5.77;84.81
51083;BME280;37131;42.694;23.350;2024-01-07T05:12:33;93652.59;;;5.53;87.19
51083;BME280;37131;42.694;23.350;2024-01-07T05:14:58;93663.53;;;5.70;86.25
51083;BME280;37131;42.694;23.350;2024-01-07T05:17:23;93646.50;;;5.77;86.33
51083;BME280;37131;42.694;23.350;2024-01-07T05:19:49;93622.78;;;5.37;88.78
51083;BME280;37131;42.694;23.350;2024-01-07T05:22:14;93633.34;;;5.34;87.11
51083;BME280;37131;42.694;23.350;2024-01-07T05:24:39;93652.31;;;5.48;86.42
51083;BME280;37131;42.694;23.350;2024-01-07T05:27:05;93661.41;;;5.50;86.64
51083;BME280;37131;42.694;23.350;2024-01-07T05:29:31;93663.41;;;5.63;86.63
51083;BME280;37131;42.694;23.350;2024-01-07T05:31:59;93665.00;;;5.64;88.09
51083;BME280;37131;42.694;23.350;2024-01-07T05:34:26;93662.75;;;5.69;86.89
51083;BME280;37131;42.694;23.350;2024-01-07T05:36:51;93644.63;;;5.71;88.14
51083;BME280;37131;42.694;23.350;2024-01-07T05:39:17;93644.81;;;5.69;88.01
51083;BME280;37131;42.694;23.350;2024-01-07T05:41:42;93646.50;;;5.77;87.90
51083;BME280;37131;42.694;23.350;2024-01-07T05:44:08;93650.59;;;5.86;87.55
51083;BME280;37131;42.694;23.350;2024-01-07T05:46:33;93639.78;;;5.53;87.88
51083;BME280;37131;42.694;23.350;2024-01-07T05:48:59;93643.16;;;5.53;89.33
51083;BME280;37131;42.694;23.350;2024-01-07T05:51:24;93650.34;;;5.73;87.94
51083;BME280;37131;42.694;23.350;2024-01-07T05:53:50;93643.13;;;5.76;87.03
51083;BME280;37131;42.694;23.350;2024-01-07T05:56:15;93638.28;;;5.81;86.79
51083;BME280;37131;42.694;23.350;2024-01-07T05:58:40;93638.88;;;5.91;88.02
51083;BME280;37131;42.694;23.350;2024-01-07T06:01:07;93645.81;;;6.06;87.63
51083;BME280;37131;42.694;23.350;2024-01-07T06:03:33;93664.66;;;6.13;86.22
51083;BME280;37131;42.694;23.350;2024-01-07T06:05:59;93664.91;;;6.03;86.64
51083;BME280;37131;42.694;23.350;2024-01-07T06:08:25;93656.41;;;5.80;87.79
51083;BME280;37131;42.694;23.350;2024-01-07T06:10:51;93649.13;;;5.91;87.15
51083;BME280;37131;42.694;23.350;2024-01-07T06:13:16;93638.25;;;5.89;86.58
51083;BME280;37131;42.694;23.350;2024-01-07T06:15:42;93639.19;;;5.88;86.40
51083;BME280;37131;42.694;23.350;2024-01-07T06:18:07;93635.78;;;5.73;88.02
51083;BME280;37131;42.694;23.350;2024-01-07T06:20:32;93638.28;;;5.81;86.44
51083;BME280;37131;42.694;23.350;2024-01-07T06:22:58;93638.56;;;5.86;87.34
51083;BME280;37131;42.694;23.350;2024-01-07T06:25:23;93649.00;;;5.85;87.59
51083;BME280;37131;42.694;23.350;2024-01-07T06:27:51;93635.78;;;5.73;86.86
51083;BME280;37131;42.694;23.350;2024-01-07T06:30:17;93642.47;;;5.59;88.54
51083;BME280;37131;42.694;23.350;2024-01-07T06:32:44;93645.81;;;5.60;87.69
51083;BME280;37131;42.694;23.350;2024-01-07T06:35:10;93653.28;;;5.70;86.88
51083;BME280;37131;42.694;23.350;2024-01-07T06:37:36;93657.63;;;5.92;86.54
51083;BME280;37131;42.694;23.350;2024-01-07T06:40:01;93661.94;;;5.91;85.80
51083;BME280;37131;42.694;23.350;2024-01-07T06:42:27;93652.19;;;5.87;85.89
51083;BME280;37131;42.694;23.350;2024-01-07T06:44:52;93653.22;;;6.01;86.02
51083;BME280;37131;42.694;23.350;2024-01-07T06:47:18;93659.19;;;6.16;85.20
51083;BME280;37131;42.694;23.350;2024-01-07T06:49:43;93673.38;;;6.04;86.85
51083;BME280;37131;42.694;23.350;2024-01-07T06:52:08;93686.53;;;6.23;85.64
51083;BME280;37131;42.694;23.350;2024-01-07T06:54:34;93687.50;;;6.22;85.41
51083;BME280;37131;42.694;23.350;2024-01-07T06:56:59;93689.84;;;6.24;86.79
51083;BME280;37131;42.694;23.350;2024-01-07T06:59:24;93674.41;;;6.17;86.89
51083;BME280;37131;42.694;23.350;2024-01-07T07:01:50;93666.75;;;5.86;87.42
51083;BME280;37131;42.694;23.350;2024-01-07T07:04:15;93667.72;;;5.85;88.04
51083;BME280;37131;42.694;23.350;2024-01-07T07:06:41;93671.91;;;6.09;87.49
51083;BME280;37131;42.694;23.350;2024-01-07T07:09:06;93683.69;;;6.18;86.03
51083;BME280;37131;42.694;23.350;2024-01-07T07:11:32;93673.44;;;6.33;86.61
51083;BME280;37131;42.694;23.350;2024-01-07T07:13:57;93663.44;;;6.38;84.99
51083;BME280;37131;42.694;23.350;2024-01-07T07:16:23;93676.72;;;6.42;85.13
51083;BME280;37131;42.694;23.350;2024-01-07T07:18:48;93665.06;;;6.54;84.95
51083;BME280;37131;42.694;23.350;2024-01-07T07:21:13;93649.56;;;6.18;86.39
51083;BME280;37131;42.694;23.350;2024-01-07T07:23:39;93647.88;;;6.25;86.35
51083;BME280;37131;42.694;23.350;2024-01-07T07:26:04;93648.00;;;6.46;85.74
51083;BME280;37131;42.694;23.350;2024-01-07T07:28:30;93661.63;;;6.61;85.30
51083;BME280;37131;42.694;23.350;2024-01-07T07:30:55;93662.16;;;6.72;83.70
51083;BME280;37131;42.694;23.350;2024-01-07T07:33:20;93664.38;;;6.60;86.58
51083;BME280;37131;42.694;23.350;2024-01-07T07:35:46;93657.88;;;6.79;85.53
51083;BME280;37131;42.694;23.350;2024-01-07T07:38:12;93647.63;;;6.93;83.68
51083;BME280;37131;42.694;23.350;2024-01-07T07:40:37;93659.75;;;7.00;84.01
51083;BME280;37131;42.694;23.350;2024-01-07T07:43:02;93673.63;;;7.05;84.16
51083;BME280;37131;42.694;23.350;2024-01-07T07:45:28;93672.22;;;7.17;84.46
51083;BME280;37131;42.694;23.350;2024-01-07T07:47:53;93673.47;;;6.92;84.27
51083;BME280;37131;42.694;23.350;2024-01-07T07:50:18;93664.00;;;7.07;83.26
51083;BME280;37131;42.694;23.350;2024-01-07T07:52:44;93654.13;;;7.25;83.86
51083;BME280;37131;42.694;23.350;2024-01-07T07:55:10;93656.38;;;7.14;83.24
51083;BME280;37131;42.694;23.350;2024-01-07T07:57:36;93657.06;;;7.22;82.98
51083;BME280;37131;42.694;23.350;2024-01-07T08:00:03;93663.47;;;7.33;81.96
51083;BME280;37131;42.694;23.350;2024-01-07T08:02:30;93656.72;;;7.11;83.67
51083;BME280;37131;42.694;23.350;2024-01-07T08:04:55;93646.47;;;7.11;81.81
51083;BME280;37131;42.694;23.350;2024-01-07T08:07:20;93641.16;;;7.12;83.04
51083;BME280;37131;42.694;23.350;2024-01-07T08:09:46;93648.50;;;7.15;82.65
51083;BME280;37131;42.694;23.350;2024-01-07T08:12:12;93648.81;;;7.27;82.91
51083;BME280;37131;42.694;23.350;2024-01-07T08:14:37;93645.16;;;7.36;82.75
51083;BME280;37131;42.694;23.350;2024-01-07T08:17:06;93652.63;;;7.52;81.36
51083;BME280;37131;42.694;23.350;2024-01-07T08:19:32;93651.97;;;7.65;81.00
51083;BME280;37131;42.694;23.350;2024-01-07T08:21:57;93635.91;;;7.20;82.83
51083;BME280;37131;42.694;23.350;2024-01-07T08:24:22;93643.47;;;7.28;82.33
51083;BME280;37131;42.694;23.350;2024-01-07T08:26:48;93656.72;;;7.47;81.65
51083;BME280;37131;42.694;23.350;2024-01-07T08:29:13;93649.09;;;7.53;81.84
51083;BME280;37131;42.694;23.350;2024-01-07T08:31:40;93651.34;;;7.42;81.76
51083;BME280;37131;42.694;23.350;2024-01-07T08:34:07;93648.31;;;7.17;83.09
51083;BME280;37131;42.694;23.350;2024-01-07T08:36:32;93652.56;;;7.10;84.59
51083;BME280;37131;42.694;23.350;2024-01-07T08:38:58;93645.31;;;7.35;84.31
51083;BME280;37131;42.694;23.350;2024-01-07T08:41:23;93651.16;;;7.43;83.33
51083;BME280;37131;42.694;23.350;2024-01-07T08:43:48;93643.06;;;7.25;84.40
51083;BME280;37131;42.694;23.350;2024-01-07T08:46:14;93631.84;;;7.11;84.44
51083;BME280;37131;42.694;23.350;2024-01-07T08:48:39;93633.59;;;7.25;83.91
51083;BME280;37131;42.694;23.350;2024-01-07T08:51:05;93640.41;;;7.54;83.67
51083;BME280;37131;42.694;23.350;2024-01-07T08:53:31;93642.81;;;7.77;83.27
51083;BME280;37131;42.694;23.350;2024-01-07T08:55:56;93639.34;;;7.91;81.62
51083;BME280;37131;42.694;23.350;2024-01-07T08:58:22;93636.22;;;7.96;80.89
51083;BME280;37131;42.694;23.350;2024-01-07T09:00:47;93640.81;;;8.01;81.09
51083;BME280;37131;42.694;23.350;2024-01-07T09:03:13;93633.97;;;8.08;80.20
51083;BME280;37131;42.694;23.350;2024-01-07T09:05:38;93640.81;;;8.22;80.21
51083;BME280;37131;42.694;23.350;2024-01-07T09:08:04;93635.88;;;7.99;79.81
51083;BME280;37131;42.694;23.350;2024-01-07T09:10:29;93639.06;;;8.29;79.23
51083;BME280;37131;42.694;23.350;2024-01-07T09:12:54;93640.75;;;8.15;77.98
51083;BME280;37131;42.694;23.350;2024-01-07T09:15:20;93635.34;;;8.32;77.76
51083;BME280;37131;42.694;23.350;2024-01-07T09:17:46;93639.25;;;8.27;79.40
51083;BME280;37131;42.694;23.350;2024-01-07T09:20:12;93633.94;;;8.29;78.77
51083;BME280;37131;42.694;23.350;2024-01-07T09:22:38;93641.00;;;8.48;78.75
51083;BME280;37131;42.694;23.350;2024-01-07T09:25:05;93634.47;;;8.87;78.05
51083;BME280;37131;42.694;23.350;2024-01-07T09:27:30;93633.81;;;9.13;75.79
51083;BME280;37131;42.694;23.350;2024-01-07T09:29:56;93644.91;;;9.13;75.46
51083;BME280;37131;42.694;23.350;2024-01-07T09:32:21;93650.53;;;9.37;75.36
51083;BME280;37131;42.694;23.350;2024-01-07T09:34:47;93640.66;;;9.47;73.89
51083;BME280;37131;42.694;23.350;2024-01-07T09:37:12;93625.38;;;9.45;75.00
51083;BME280;37131;42.694;23.350;2024-01-07T09:39:41;93626.75;;;9.41;73.18
51083;BME280;37131;42.694;23.350;2024-01-07T09:42:16;93626.34;;;9.31;73.69
51083;BME280;37131;42.694;23.350;2024-01-07T09:44:42;93626.44;;;9.03;74.35
51083;BME280;37131;42.694;23.350;2024-01-07T09:47:13;93616.06;;;9.38;73.53
51083;BME280;37131;42.694;23.350;2024-01-07T09:49:39;93614.28;;;9.38;70.57
51083;BME280;37131;42.694;23.350;2024-01-07T09:52:05;93624.41;;;9.46;72.55
51083;BME280;37131;42.694;23.350;2024-01-07T09:54:31;93623.69;;;9.85;71.47
51083;BME280;37131;42.694;23.350;2024-01-07T09:57:02;93621.31;;;9.97;69.73
51083;BME280;37131;42.694;23.350;2024-01-07T09:59:28;93622.09;;;10.11;69.99
51083;BME280;37131;42.694;23.350;2024-01-07T10:01:55;93625.69;;;10.16;71.93
51083;BME280;37131;42.694;23.350;2024-01-07T10:04:20;93617.97;;;10.30;68.51
51083;BME280;37131;42.694;23.350;2024-01-07T10:06:46;93612.56;;;10.51;68.93
51083;BME280;37131;42.694;23.350;2024-01-07T10:09:12;93613.53;;;10.76;67.01
51083;BME280;37131;42.694;23.350;2024-01-07T10:11:38;93612.06;;;10.93;67.14
51083;BME280;37131;42.694;23.350;2024-01-07T10:14:04;93606.97;;;10.74;66.72
51083;BME280;37131;42.694;23.350;2024-01-07T10:16:30;93602.44;;;10.49;67.05
51083;BME280;37131;42.694;23.350;2024-01-07T10:18:55;93603.84;;;9.92;65.65
51083;BME280;37131;42.694;23.350;2024-01-07T10:21:20;93606.81;;;10.03;65.75
51083;BME280;37131;42.694;23.350;2024-01-07T10:23:46;93590.78;;;10.34;66.84
51083;BME280;37131;42.694;23.350;2024-01-07T10:26:11;93592.31;;;10.54;66.76
51083;BME280;37131;42.694;23.350;2024-01-07T10:28:37;93581.03;;;10.16;67.25
51083;BME280;37131;42.694;23.350;2024-01-07T10:31:03;93571.31;;;10.18;67.06
51083;BME280;37131;42.694;23.350;2024-01-07T10:33:31;93566.16;;;10.38;67.05
51083;BME280;37131;42.694;23.350;2024-01-07T10:36:05;93579.63;;;10.53;66.19
51083;BME280;37131;42.694;23.350;2024-01-07T10:38:32;93566.06;;;10.71;66.01
51083;BME280;37131;42.694;23.350;2024-01-07T10:41:01;93555.16;;;10.62;65.69
51083;BME280;37131;42.694;23.350;2024-01-07T10:43:29;93551.34;;;10.78;66.19
51083;BME280;37131;42.694;23.350;2024-01-07T10:45:55;93557.44;;;10.39;65.03
51083;BME280;37131;42.694;23.350;2024-01-07T10:48:23;93555.81;;;10.44;66.30
51083;BME280;37131;42.694;23.350;2024-01-07T10:50:55;93554.00;;;10.51;67.05
51083;BME280;37131;42.694;23.350;2024-01-07T10:53:21;93555.72;;;10.77;66.09
51083;BME280;37131;42.694;23.350;2024-01-07T10:55:54;93556.75;;;10.63;65.08
51083;BME280;37131;42.694;23.350;2024-01-07T10:58:22;93555.44;;;10.01;66.24
51083;BME280;37131;42.694;23.350;2024-01-07T11:00:48;93561.19;;;10.10;66.46
51083;BME280;37131;42.694;23.350;2024-01-07T11:03:28;93556.38;;;10.53;66.24
51083;BME280;37131;42.694;23.350;2024-01-07T11:06:18;93549.75;;;10.83;63.86
51083;BME280;37131;42.694;23.350;2024-01-07T11:08:57;93550.47;;;10.97;63.64
51083;BME280;37131;42.694;23.350;2024-01-07T11:11:40;93549.38;;;11.18;63.49
51083;BME280;37131;42.694;23.350;2024-01-07T11:14:38;93545.38;;;11.53;60.94
51083;BME280;37131;42.694;23.350;2024-01-07T11:17:07;93551.34;;;11.22;62.53
51083;BME280;37131;42.694;23.350;2024-01-07T11:19:35;93558.16;;;11.10;64.07
51083;BME280;37131;42.694;23.350;2024-01-07T11:22:23;93555.03;;;11.71;61.98
51083;BME280;37131;42.694;23.350;2024-01-07T11:24:50;93553.00;;;11.80;61.62
51083;BME280;37131;42.694;23.350;2024-01-07T11:27:16;93552.91;;;11.61;60.95
51083;BME280;37131;42.694;23.350;2024-01-07T11:29:42;93549.41;;;11.81;61.25
51083;BME280;37131;42.694;23.350;2024-01-07T11:32:07;93543.50;;;11.42;63.55
51083;BME280;37131;42.694;23.350;2024-01-07T11:34:43;93547.47;;;11.70;61.77
51083;BME280;37131;42.694;23.350;2024-01-07T11:37:19;93544.94;;;11.63;61.90
51083;BME280;37131;42.694;23.350;2024-01-07T11:39:45;93542.25;;;11.76;61.11
51083;BME280;37131;42.694;23.350;2024-01-07T11:42:12;93545.03;;;11.81;59.77
51083;BME280;37131;42.694;23.350;2024-01-07T11:44:44;93548.25;;;11.77;60.05
51083;BME280;37131;42.694;23.350;2024-01-07T11:47:09;93541.34;;;11.64;61.06
51083;BME280;37131;42.694;23.350;2024-01-07T11:49:35;93540.81;;;11.87;58.82
51083;BME280;37131;42.694;23.350;2024-01-07T11:52:00;93553.03;;;11.98;58.48
51083;BME280;37131;42.694;23.350;2024-01-07T11:54:27;93557.53;;;12.09;57.23
51083;BME280;37131;42.694;23.350;2024-01-07T11:56:54;93559.47;;;12.14;54.76
51083;BME280;37131;42.694;23.350;2024-01-07T11:59:19;93556.16;;;12.07;56.62
51083;BME280;37131;42.694;23.350;2024-01-07T12:01:44;93555.78;;;12.03;56.59
51083;BME280;37131;42.694;23.350;2024-01-07T12:04:10;93543.50;;;11.42;58.92
51083;BME280;37131;42.694;23.350;2024-01-07T12:06:37;93539.28;;;11.79;59.50
51083;BME280;37131;42.694;23.350;2024-01-07T12:09:03;93547.88;;;11.98;57.59
51083;BME280;37131;42.694;23.350;2024-01-07T12:11:28;93548.88;;;11.97;58.19
51083;BME280;37131;42.694;23.350;2024-01-07T12:13:54;93556.31;;;12.12;56.68
51083;BME280;37131;42.694;23.350;2024-01-07T12:16:20;93548.75;;;12.10;57.75
51083;BME280;37131;42.694;23.350;2024-01-07T12:18:46;93544.63;;;11.84;56.71
51083;BME280;37131;42.694;23.350;2024-01-07T12:21:18;93549.31;;;11.94;58.43
51083;BME280;37131;42.694;23.350;2024-01-07T12:23:48;93552.63;;;12.01;58.12
51083;BME280;37131;42.694;23.350;2024-01-07T12:26:14;93552.44;;;11.96;58.89
51083;BME280;37131;42.694;23.350;2024-01-07T12:28:40;93560.38;;;12.01;59.33
51083;BME280;37131;42.694;23.350;2024-01-07T12:31:07;93558.16;;;12.05;58.43
51083;BME280;37131;42.694;23.350;2024-01-07T12:33:33;93559.09;;;12.10;57.38
51083;BME280;37131;42.694;23.350;2024-01-07T12:35:59;93561.00;;;11.97;57.89
51083;BME280;37131;42.694;23.350;2024-01-07T12:38:25;93557.16;;;11.81;59.18
51083;BME280;37131;42.694;23.350;2024-01-07T12:40:51;93557.97;;;11.81;59.59
51083;BME280;37131;42.694;23.350;2024-01-07T12:43:17;93560.19;;;11.71;58.81
51083;BME280;37131;42.694;23.350;2024-01-07T12:45:42;93559.19;;;11.72;59.95
51083;BME280;37131;42.694;23.350;2024-01-07T12:48:07;93560.41;;;11.70;59.86
51083;BME280;37131;42.694;23.350;2024-01-07T12:50:33;93559.41;;;11.71;59.37
51083;BME280;37131;42.694;23.350;2024-01-07T12:52:58;93559.78;;;11.74;60.83